createdAt,value
2017-08-11T00:02:16.657Z,70.73
2017-08-11T00:04:46.300Z,71.93
2017-08-11T00:07:15.730Z,69.40
2017-08-11T00:09:45.288Z,70.77
2017-08-11T00:12:14.414Z,71.70
2017-08-11T00:14:43.892Z,68.97
2017-08-11T00:17:14.221Z,67.87
2017-08-11T00:19:43.540Z,67.40
2017-08-11T00:22:12.993Z,69.73
2017-08-11T00:24:42.345Z,73.27
2017-08-11T00:27:11.636Z,70.70
2017-08-11T00:29:42.368Z,66.70
2017-08-11T00:32:12.122Z,65.10
2017-08-11T00:34:41.632Z,65.03
2017-08-11T00:37:10.486Z,64.73
2017-08-11T00:39:39.845Z,62.57
2017-08-11T00:42:09.222Z,63.80
2017-08-11T00:44:38.526Z,60.73
2017-08-11T00:47:08.220Z,67.10
2017-08-11T00:49:37.295Z,63.47
2017-08-11T00:52:06.959Z,63.70
2017-08-11T00:54:36.336Z,62.83
2017-08-11T00:57:06.284Z,65.53
2017-08-11T00:59:38.250Z,64.30
2017-08-11T01:02:07.833Z,60.60
2017-08-11T01:04:37.773Z,62.57
2017-08-11T01:07:08.110Z,62.77
2017-08-11T01:09:39.000Z,63.70
2017-08-11T01:12:08.849Z,59.70
2017-08-11T01:14:38.073Z,65.67
2017-08-11T01:17:06.791Z,62.30
2017-08-11T01:19:36.153Z,64.40
2017-08-11T01:22:05.153Z,63.90
2017-08-11T01:24:35.012Z,60.83
2017-08-11T01:27:04.080Z,57.80
2017-08-11T01:29:33.627Z,59.17
2017-08-11T01:32:03.288Z,58.63
2017-08-11T01:34:32.636Z,56.30
2017-08-11T01:37:01.721Z,56.33
2017-08-11T01:39:31.183Z,56.70
2017-08-11T01:42:00.309Z,54.23
2017-08-11T01:44:30.719Z,52.30
2017-08-11T01:47:00.019Z,54.40
2017-08-11T01:49:29.266Z,55.87
2017-08-11T01:51:59.463Z,53.43
2017-08-11T01:54:28.845Z,54.13
2017-08-11T01:56:58.345Z,54.70
2017-08-11T01:59:29.122Z,52.30
2017-08-11T02:01:58.308Z,52.50
2017-08-11T02:04:27.343Z,51.40
2017-08-11T02:06:56.763Z,52.40
2017-08-11T02:09:26.219Z,51.20
2017-08-11T02:11:55.959Z,52.40
2017-08-11T02:14:25.460Z,50.27
2017-08-11T02:16:54.637Z,53.07
2017-08-11T02:19:23.982Z,52.57
2017-08-11T02:21:53.556Z,52.03
2017-08-11T02:24:23.531Z,51.63
2017-08-11T02:26:52.803Z,50.57
2017-08-11T02:29:22.251Z,50.50
2017-08-11T02:31:51.451Z,53.87
2017-08-11T02:34:20.582Z,51.63
2017-08-11T02:36:50.191Z,51.87
2017-08-11T02:39:19.457Z,53.80
2017-08-11T02:41:48.724Z,51.00
2017-08-11T02:44:18.436Z,51.57
2017-08-11T02:46:47.548Z,51.07
2017-08-11T02:49:17.622Z,51.03
2017-08-11T02:51:46.991Z,49.53
2017-08-11T02:54:16.260Z,49.07
2017-08-11T02:56:45.780Z,50.37
2017-08-11T02:59:14.755Z,51.67
2017-08-11T03:01:45.228Z,48.23
2017-08-11T03:04:14.697Z,52.03
2017-08-11T03:06:44.111Z,52.00
2017-08-11T03:09:13.604Z,52.23
2017-08-11T03:11:43.265Z,52.90
2017-08-11T03:14:13.238Z,53.67
2017-08-11T03:16:42.348Z,52.23
2017-08-11T03:19:11.604Z,51.70
2017-08-11T03:21:41.018Z,47.17
2017-08-11T03:24:10.262Z,51.87
2017-08-11T03:26:39.813Z,49.23
2017-08-11T03:29:09.342Z,49.97
2017-08-11T03:31:40.143Z,48.97
2017-08-11T03:34:10.325Z,51.27
2017-08-11T03:36:40.293Z,48.53
2017-08-11T03:39:09.682Z,49.30
2017-08-11T03:41:39.018Z,49.00
2017-08-11T03:44:08.409Z,49.00
2017-08-11T03:46:37.937Z,48.73
2017-08-11T03:49:07.406Z,46.53
2017-08-11T03:51:36.888Z,48.30
2017-08-11T03:54:06.229Z,45.73
2017-08-11T03:56:35.922Z,48.10
2017-08-11T03:59:05.550Z,48.23
2017-08-11T04:01:34.816Z,45.77
2017-08-11T04:04:05.415Z,47.30
2017-08-11T04:06:34.514Z,47.13
2017-08-11T04:09:03.958Z,46.60
2017-08-11T04:11:33.440Z,46.70
2017-08-11T04:14:02.823Z,45.23
2017-08-11T04:16:33.304Z,44.00
2017-08-11T04:19:02.576Z,42.73
2017-08-11T04:21:32.724Z,45.77
2017-08-11T04:24:02.296Z,43.53
2017-08-11T04:26:31.617Z,42.67
2017-08-11T04:29:01.080Z,42.67
2017-08-11T04:31:30.653Z,40.20
2017-08-11T04:34:00.240Z,40.60
2017-08-11T04:36:29.735Z,41.80
2017-08-11T04:38:59.083Z,40.67
2017-08-11T04:41:28.991Z,38.60
2017-08-11T04:43:58.105Z,40.00
2017-08-11T04:46:27.554Z,37.47
2017-08-11T04:48:56.834Z,38.63
2017-08-11T04:51:26.081Z,38.50
2017-08-11T04:53:55.339Z,35.63
2017-08-11T04:56:26.525Z,35.43
2017-08-11T04:58:55.609Z,32.90
2017-08-11T05:01:25.133Z,33.53
2017-08-11T05:03:54.297Z,34.60
2017-08-11T05:06:25.702Z,32.50
2017-08-11T05:08:54.983Z,35.70
2017-08-11T05:11:24.216Z,34.53
2017-08-11T05:13:53.667Z,33.17
2017-08-11T05:16:22.692Z,31.53
2017-08-11T05:18:51.794Z,31.70
2017-08-11T05:21:20.948Z,30.67
2017-08-11T05:23:50.396Z,30.40
2017-08-11T05:26:19.491Z,28.80
2017-08-11T05:28:49.009Z,31.40
2017-08-11T05:31:18.460Z,29.30
2017-08-11T05:33:48.331Z,27.73
2017-08-11T05:36:19.985Z,28.00
2017-08-11T05:38:49.420Z,29.27
2017-08-11T05:41:18.940Z,27.70
2017-08-11T05:43:49.577Z,27.67
2017-08-11T05:46:18.880Z,26.30
2017-08-11T05:48:48.971Z,26.23
2017-08-11T05:51:18.279Z,26.60
2017-08-11T05:53:47.847Z,27.97
2017-08-11T05:56:16.984Z,26.17
2017-08-11T05:58:47.014Z,26.07
2017-08-11T06:01:16.581Z,26.40
2017-08-11T06:03:46.820Z,26.57
2017-08-11T06:06:16.963Z,25.73
2017-08-11T06:08:46.770Z,27.10
2017-08-11T06:11:16.262Z,26.67
2017-08-11T06:13:47.131Z,26.67
2017-08-11T06:16:17.078Z,24.87
2017-08-11T06:18:47.492Z,26.77
2017-08-11T06:21:16.940Z,25.17
2017-08-11T06:23:47.070Z,26.83
2017-08-11T06:26:17.166Z,24.70
2017-08-11T06:28:46.405Z,25.20
2017-08-11T06:31:15.943Z,24.20
2017-08-11T06:33:45.017Z,28.17
2017-08-11T06:36:14.518Z,25.07
2017-08-11T06:38:44.912Z,25.10
2017-08-11T06:41:14.466Z,26.60
2017-08-11T06:43:43.986Z,24.97
2017-08-11T06:46:13.424Z,27.43
2017-08-11T06:48:43.411Z,25.93
2017-08-11T06:51:13.802Z,23.43
2017-08-11T06:53:44.012Z,25.83
2017-08-11T06:56:13.321Z,23.73
2017-08-11T06:58:42.952Z,24.70
2017-08-11T07:01:12.036Z,22.63
2017-08-11T07:03:44.494Z,24.70
2017-08-11T07:06:13.782Z,22.30
2017-08-11T07:08:42.655Z,23.13
2017-08-11T07:11:12.895Z,23.20
2017-08-11T07:13:42.269Z,23.67
2017-08-11T07:16:11.590Z,22.23
2017-08-11T07:18:41.604Z,20.70
2017-08-11T07:21:10.809Z,21.17
2017-08-11T07:23:40.930Z,22.37
2017-08-11T07:26:10.283Z,20.57
2017-08-11T07:28:39.565Z,22.60
2017-08-11T07:31:08.914Z,22.10
2017-08-11T07:33:45.108Z,20.83
2017-08-11T07:36:14.621Z,21.10
2017-08-11T07:38:43.705Z,19.67
2017-08-11T07:41:13.159Z,20.37
2017-08-11T07:43:42.315Z,23.20
2017-08-11T07:46:11.484Z,21.40
2017-08-11T07:48:41.682Z,23.10
2017-08-11T07:51:10.965Z,22.67
2017-08-11T07:53:40.273Z,20.97
2017-08-11T07:56:09.631Z,21.27
2017-08-11T07:58:38.952Z,20.70
2017-08-11T08:01:08.216Z,20.83
2017-08-11T08:03:38.468Z,21.73
2017-08-11T08:06:07.942Z,19.77
2017-08-11T08:08:37.290Z,21.10
2017-08-11T08:11:06.671Z,22.03
2017-08-11T08:13:37.152Z,21.00
2017-08-11T08:16:06.298Z,22.27
2017-08-11T08:18:35.712Z,22.47
2017-08-11T08:21:05.128Z,21.00
2017-08-11T08:23:34.377Z,20.63
2017-08-11T08:26:03.839Z,21.63
2017-08-11T08:28:32.870Z,20.37
2017-08-11T08:31:02.079Z,22.30
2017-08-11T08:33:31.301Z,22.23
2017-08-11T08:36:00.495Z,20.10
2017-08-11T08:38:29.975Z,20.60
2017-08-11T08:40:59.261Z,21.87
2017-08-11T08:43:28.613Z,20.67
2017-08-11T08:45:57.959Z,21.93
2017-08-11T08:48:27.531Z,20.80
2017-08-11T08:50:56.805Z,21.70
2017-08-11T08:53:25.901Z,22.80
2017-08-11T08:55:55.359Z,20.63
2017-08-11T08:58:24.456Z,21.10
2017-08-11T09:00:53.786Z,21.70
2017-08-11T09:03:23.097Z,22.13
2017-08-11T09:05:52.777Z,21.67
2017-08-11T09:08:22.029Z,20.83
2017-08-11T09:10:51.446Z,20.57
2017-08-11T09:13:21.015Z,20.73
2017-08-11T09:15:51.537Z,21.00
2017-08-11T09:18:21.121Z,20.53
2017-08-11T09:20:50.405Z,20.67
2017-08-11T09:23:19.809Z,20.63
2017-08-11T09:26:00.019Z,20.80
2017-08-11T09:28:40.770Z,20.40
2017-08-11T09:31:22.143Z,20.43
2017-08-11T09:34:02.631Z,20.73
2017-08-11T09:36:41.501Z,21.77
2017-08-11T09:39:10.686Z,22.67
2017-08-11T09:41:39.785Z,21.57
2017-08-11T09:44:09.302Z,20.47
2017-08-11T09:46:38.622Z,20.80
2017-08-11T09:49:08.106Z,21.60
2017-08-11T09:51:37.721Z,20.80
2017-08-11T09:54:07.038Z,22.93
2017-08-11T09:56:36.892Z,22.80
2017-08-11T09:59:06.076Z,22.50
2017-08-11T10:01:35.243Z,21.73
2017-08-11T10:04:04.392Z,22.60
2017-08-11T10:06:34.081Z,21.70
2017-08-11T10:09:04.717Z,21.03
2017-08-11T10:11:33.705Z,22.87
2017-08-11T10:14:03.255Z,20.57
2017-08-11T10:16:33.153Z,22.80
2017-08-11T10:19:02.224Z,22.33
2017-08-11T10:21:31.012Z,22.87
2017-08-11T10:24:00.299Z,23.80
2017-08-11T10:26:30.047Z,24.30
2017-08-11T10:28:58.950Z,26.20
2017-08-11T10:31:27.803Z,24.00
2017-08-11T10:33:56.590Z,23.63
2017-08-11T10:36:25.264Z,24.37
2017-08-11T10:38:54.167Z,22.40
2017-08-11T10:41:23.476Z,24.73
2017-08-11T10:43:52.863Z,24.47
2017-08-11T10:46:22.313Z,25.83
2017-08-11T10:48:51.705Z,25.73
2017-08-11T10:51:22.291Z,26.80
2017-08-11T10:53:51.663Z,26.70
2017-08-11T10:56:20.984Z,25.97
2017-08-11T10:58:51.049Z,25.27
2017-08-11T11:01:20.271Z,24.50
2017-08-11T11:03:49.587Z,23.77
2017-08-11T11:06:18.840Z,25.83
2017-08-11T11:08:48.023Z,24.30
2017-08-11T11:11:17.580Z,25.70
2017-08-11T11:13:47.021Z,25.17
2017-08-11T11:16:16.955Z,27.00
2017-08-11T11:18:48.240Z,26.30
2017-08-11T11:21:17.457Z,25.03
2017-08-11T11:23:46.518Z,27.00
2017-08-11T11:26:16.890Z,23.60
2017-08-11T11:28:46.047Z,23.30
2017-08-11T11:31:15.478Z,24.37
2017-08-11T11:33:44.812Z,25.50
2017-08-11T11:36:13.976Z,24.20
2017-08-11T11:38:43.460Z,24.97
2017-08-11T11:41:12.708Z,24.90
2017-08-11T11:43:42.810Z,25.90
2017-08-11T11:46:11.915Z,24.20
2017-08-11T11:48:41.140Z,23.63
2017-08-11T11:51:10.805Z,25.00
2017-08-11T11:53:40.144Z,28.07
2017-08-11T11:56:09.973Z,27.30
2017-08-11T11:58:39.365Z,25.20
2017-08-11T12:01:08.795Z,24.90
2017-08-11T12:03:38.431Z,25.53
2017-08-11T12:06:07.720Z,25.93
2017-08-11T12:08:36.920Z,26.67
2017-08-11T12:11:06.015Z,25.60
2017-08-11T12:13:35.463Z,24.03
2017-08-11T12:16:05.746Z,24.70
2017-08-11T12:18:34.774Z,26.13
2017-08-11T12:21:04.976Z,26.83
2017-08-11T12:23:34.251Z,25.67
2017-08-11T12:26:03.413Z,26.23
2017-08-11T12:28:32.650Z,27.27
2017-08-11T12:31:01.943Z,25.83
2017-08-11T12:33:31.237Z,26.50
2017-08-11T12:36:00.618Z,27.27
2017-08-11T12:38:29.865Z,28.50
2017-08-11T12:40:59.392Z,28.60
2017-08-11T12:43:29.052Z,28.70
2017-08-11T12:45:58.593Z,28.20
2017-08-11T12:48:27.930Z,29.17
2017-08-11T12:50:57.052Z,26.80
2017-08-11T12:53:26.386Z,26.93
2017-08-11T12:55:56.013Z,27.37
2017-08-11T12:58:25.322Z,28.43
2017-08-11T13:00:54.487Z,26.97
2017-08-11T13:03:24.035Z,28.10
2017-08-11T13:05:53.310Z,28.90
2017-08-11T13:08:22.692Z,29.37
2017-08-11T13:10:52.193Z,27.63
2017-08-11T13:13:21.387Z,26.30
2017-08-11T13:15:50.975Z,25.40
2017-08-11T13:18:20.313Z,28.30
2017-08-11T13:20:49.783Z,26.80
2017-08-11T13:23:20.799Z,26.83
2017-08-11T13:25:50.117Z,27.67
2017-08-11T13:28:19.459Z,25.97
2017-08-11T13:30:48.763Z,28.67
2017-08-11T13:33:17.833Z,25.90
2017-08-11T13:35:47.236Z,24.63
2017-08-11T13:38:16.705Z,24.93
2017-08-11T13:40:45.691Z,24.90
2017-08-11T13:43:14.851Z,24.90
2017-08-11T13:45:44.688Z,27.63
2017-08-11T13:48:13.622Z,26.43
2017-08-11T13:50:43.100Z,25.13
2017-08-11T13:53:13.183Z,27.50
2017-08-11T13:55:42.394Z,26.37
2017-08-11T13:58:11.578Z,27.43
2017-08-11T14:00:40.758Z,28.20
2017-08-11T14:03:10.045Z,25.43
2017-08-11T14:05:40.006Z,28.00
2017-08-11T14:08:09.281Z,26.10
2017-08-11T14:10:38.607Z,27.43
2017-08-11T14:13:07.977Z,27.80
2017-08-11T14:15:37.967Z,25.97
2017-08-11T14:18:07.787Z,25.00
2017-08-11T14:20:37.303Z,25.23
2017-08-11T14:23:07.117Z,26.37
2017-08-11T14:25:37.473Z,24.90
2017-08-11T14:28:07.066Z,25.30
2017-08-11T14:30:36.424Z,24.40
2017-08-11T14:33:06.031Z,26.17
2017-08-11T14:35:35.275Z,25.60
2017-08-11T14:38:04.839Z,25.20
2017-08-11T14:40:33.802Z,25.60
2017-08-11T14:43:03.092Z,26.10
2017-08-11T14:45:32.427Z,23.37
2017-08-11T14:48:02.121Z,23.70
2017-08-11T14:50:32.649Z,24.63
2017-08-11T14:53:02.385Z,24.90
2017-08-11T14:55:32.356Z,24.30
2017-08-11T14:58:01.367Z,24.33
2017-08-11T15:00:30.854Z,23.80
2017-08-11T15:03:00.119Z,23.27
2017-08-11T15:05:29.541Z,23.33
2017-08-11T15:07:58.710Z,23.30
2017-08-11T15:10:28.058Z,22.13
2017-08-11T15:12:57.463Z,22.53
2017-08-11T15:15:26.694Z,24.27
2017-08-11T15:17:55.820Z,20.80
2017-08-11T15:20:25.222Z,23.37
2017-08-11T15:22:55.049Z,24.07
2017-08-11T15:25:24.994Z,24.17
2017-08-11T15:27:55.526Z,23.20
2017-08-11T15:30:25.450Z,23.07
2017-08-11T15:32:54.681Z,22.40
2017-08-11T15:35:24.022Z,23.20
2017-08-11T15:38:00.269Z,23.80
2017-08-11T15:40:29.372Z,22.27
2017-08-11T15:42:59.232Z,22.33
2017-08-11T15:45:28.799Z,21.20
2017-08-11T15:47:58.047Z,23.80
2017-08-11T15:50:28.017Z,22.47
2017-08-11T15:52:57.324Z,20.67
2017-08-11T15:55:26.511Z,21.53
2017-08-11T15:57:55.914Z,21.77
2017-08-11T16:00:25.245Z,21.47
2017-08-11T16:02:54.670Z,20.27
2017-08-11T16:05:23.969Z,22.90
2017-08-11T16:07:53.152Z,22.33
2017-08-11T16:10:22.324Z,22.87
2017-08-11T16:12:51.697Z,23.00
2017-08-11T16:15:21.181Z,23.00
2017-08-11T16:17:51.342Z,20.73
2017-08-11T16:20:21.574Z,24.00
2017-08-11T16:22:50.918Z,20.57
2017-08-11T16:25:20.351Z,21.23
2017-08-11T16:27:49.606Z,25.53
2017-08-11T16:30:19.779Z,23.90
2017-08-11T16:32:49.349Z,21.00
2017-08-11T16:35:18.503Z,22.10
2017-08-11T16:37:47.728Z,23.67
2017-08-11T16:40:16.968Z,23.50
2017-08-11T16:42:46.495Z,22.03
2017-08-11T16:45:16.287Z,21.90
2017-08-11T16:47:45.709Z,24.67
2017-08-11T16:50:15.234Z,20.67
2017-08-11T16:52:44.180Z,22.80
2017-08-11T16:55:14.503Z,22.43
2017-08-11T16:57:44.511Z,21.60
2017-08-11T17:00:13.906Z,23.13
2017-08-11T17:02:44.004Z,24.40
2017-08-11T17:05:20.429Z,22.00
2017-08-11T17:07:50.213Z,19.20
2017-08-11T17:10:19.491Z,22.73
2017-08-11T17:12:48.737Z,22.67
2017-08-11T17:15:18.143Z,21.60
2017-08-11T17:17:47.801Z,23.43
2017-08-11T17:20:18.536Z,20.60
2017-08-11T17:22:47.864Z,19.67
2017-08-11T17:25:19.932Z,23.50
2017-08-11T17:27:49.172Z,21.60
2017-08-11T17:30:19.420Z,24.77
2017-08-11T17:32:48.530Z,21.10
2017-08-11T17:35:17.732Z,24.53
2017-08-11T17:37:47.202Z,21.40
2017-08-11T17:40:16.474Z,23.57
2017-08-11T17:42:46.134Z,23.33
2017-08-11T17:45:15.286Z,21.77
2017-08-11T17:47:44.437Z,22.70
2017-08-11T17:50:14.319Z,25.90
2017-08-11T17:52:43.660Z,23.00
2017-08-11T17:55:13.581Z,22.13
2017-08-11T17:57:43.718Z,23.70
2017-08-11T18:00:13.000Z,25.53
2017-08-11T18:02:42.515Z,22.40
2017-08-11T18:05:11.883Z,24.47
2017-08-11T18:07:41.219Z,23.87
2017-08-11T18:10:10.674Z,23.10
2017-08-11T18:12:39.996Z,23.70
2017-08-11T18:15:09.723Z,23.70
2017-08-11T18:17:40.117Z,24.77
2017-08-11T18:20:09.135Z,23.23
2017-08-11T18:22:38.217Z,25.30
2017-08-11T18:25:07.525Z,23.23
2017-08-11T18:27:37.101Z,23.40
2017-08-11T18:30:06.725Z,23.90
2017-08-11T18:32:37.236Z,22.03
2017-08-11T18:35:06.338Z,23.80
2017-08-11T18:37:35.726Z,24.40
2017-08-11T18:40:04.926Z,23.63
2017-08-11T18:42:34.493Z,22.37
2017-08-11T18:45:03.907Z,23.17
2017-08-11T18:47:33.687Z,23.53
2017-08-11T18:50:03.172Z,21.53
2017-08-11T18:52:32.442Z,24.60
2017-08-11T18:55:01.756Z,26.43
2017-08-11T18:57:30.913Z,23.37
2017-08-11T19:00:00.198Z,24.57
2017-08-11T19:02:29.219Z,24.00
2017-08-11T19:04:59.655Z,23.53
2017-08-11T19:07:29.212Z,23.23
2017-08-11T19:09:58.199Z,22.80
2017-08-11T19:12:27.462Z,21.93
2017-08-11T19:14:56.660Z,24.73
2017-08-11T19:17:26.194Z,25.00
2017-08-11T19:19:55.334Z,25.00
2017-08-11T19:22:25.654Z,22.60
2017-08-11T19:24:55.523Z,24.97
2017-08-11T19:27:24.831Z,22.00
2017-08-11T19:29:54.028Z,24.53
2017-08-11T19:32:23.329Z,23.77
2017-08-11T19:34:54.148Z,23.70
2017-08-11T19:37:23.435Z,24.13
2017-08-11T19:39:52.795Z,24.97
2017-08-11T19:42:22.843Z,24.47
2017-08-11T19:44:51.934Z,23.30
2017-08-11T19:47:21.184Z,25.80
2017-08-11T19:49:50.414Z,26.17
2017-08-11T19:52:19.678Z,27.53
2017-08-11T19:54:50.038Z,25.17
2017-08-11T19:57:19.404Z,26.97
2017-08-11T19:59:49.367Z,24.07
2017-08-11T20:02:18.746Z,25.70
2017-08-11T20:04:48.060Z,26.80
2017-08-11T20:07:17.126Z,28.93
2017-08-11T20:09:47.174Z,27.00
2017-08-11T20:12:16.939Z,26.87
2017-08-11T20:14:46.313Z,26.40
2017-08-11T20:17:15.596Z,24.53
2017-08-11T20:19:45.246Z,25.07
2017-08-11T20:22:14.901Z,28.33
2017-08-11T20:24:44.637Z,26.27
2017-08-11T20:27:14.012Z,28.80
2017-08-11T20:29:43.357Z,26.33
2017-08-11T20:32:13.359Z,27.80
2017-08-11T20:34:42.758Z,28.17
2017-08-11T20:37:12.944Z,26.20
2017-08-11T20:39:42.141Z,27.77
2017-08-11T20:42:11.430Z,26.73
2017-08-11T20:44:40.992Z,26.53
2017-08-11T20:47:10.310Z,26.80
2017-08-11T20:49:39.626Z,28.30
2017-08-11T20:52:08.877Z,27.77
2017-08-11T20:54:38.162Z,29.10
2017-08-11T20:57:07.105Z,27.77
2017-08-11T20:59:36.380Z,27.60
2017-08-11T21:02:05.634Z,29.27
2017-08-11T21:04:35.221Z,30.10
2017-08-11T21:07:04.854Z,30.07
2017-08-11T21:09:34.130Z,28.20
2017-08-11T21:12:03.317Z,29.60
2017-08-11T21:14:32.780Z,27.40
2017-08-11T21:17:02.122Z,29.47
2017-08-11T21:19:31.395Z,30.73
2017-08-11T21:22:00.785Z,30.20
2017-08-11T21:24:30.212Z,29.97
2017-08-11T21:26:59.275Z,32.57
2017-08-11T21:29:28.685Z,31.70
2017-08-11T21:31:57.799Z,30.23
2017-08-11T21:34:26.982Z,31.10
2017-08-11T21:36:56.416Z,30.47
2017-08-11T21:39:27.148Z,33.37
2017-08-11T21:41:56.730Z,31.57
2017-08-11T21:44:26.092Z,31.90
2017-08-11T21:46:55.478Z,32.70
2017-08-11T21:49:24.608Z,34.20
2017-08-11T21:51:53.684Z,31.40
2017-08-11T21:54:23.171Z,33.93
2017-08-11T21:56:52.510Z,37.30
2017-08-11T21:59:21.953Z,35.10
2017-08-11T22:01:51.398Z,34.70
2017-08-11T22:04:20.771Z,34.50
2017-08-11T22:06:50.197Z,34.10
2017-08-11T22:09:19.541Z,37.20
2017-08-11T22:11:49.083Z,35.67
2017-08-11T22:14:18.390Z,38.40
2017-08-11T22:16:47.636Z,40.03
2017-08-11T22:19:16.912Z,38.77
2017-08-11T22:21:46.285Z,39.40
2017-08-11T22:24:15.774Z,41.07
2017-08-11T22:26:44.993Z,42.40
2017-08-11T22:29:14.254Z,42.20
2017-08-11T22:31:43.418Z,42.97
2017-08-11T22:34:13.253Z,43.27
2017-08-11T22:36:42.298Z,40.60
2017-08-11T22:39:11.548Z,43.33
2017-08-11T22:41:41.679Z,43.13
2017-08-11T22:44:11.003Z,43.43
2017-08-11T22:46:40.289Z,43.97
2017-08-11T22:49:09.590Z,39.50
2017-08-11T22:51:38.334Z,42.20
2017-08-11T22:54:08.150Z,40.87
2017-08-11T22:56:37.229Z,46.40
2017-08-11T22:59:06.309Z,46.50
2017-08-11T23:01:35.817Z,43.63
2017-08-11T23:04:05.042Z,42.77
2017-08-11T23:06:34.188Z,42.83
2017-08-11T23:09:03.239Z,41.27
2017-08-11T23:11:33.254Z,42.17
2017-08-11T23:14:02.529Z,39.70
2017-08-11T23:16:32.037Z,43.10
2017-08-11T23:19:01.325Z,43.10
2017-08-11T23:25:48.317Z,40.77
2017-08-11T23:28:17.482Z,39.10
2017-08-11T23:30:46.706Z,42.10
2017-08-11T23:33:17.321Z,41.53
2017-08-11T23:35:46.697Z,43.90
2017-08-11T23:38:16.008Z,40.47
2017-08-11T23:40:45.432Z,37.23
2017-08-11T23:43:15.270Z,37.20
2017-08-11T23:45:44.679Z,39.47
2017-08-11T23:48:14.022Z,38.10
2017-08-11T23:50:43.074Z,38.93
2017-08-11T23:53:12.153Z,36.70
2017-08-11T23:55:40.922Z,37.00
2017-08-11T23:58:10.106Z,38.70
